OHDAC EFPO-EFPO

Flight info

Callsign OHDAC
Flight time N/A
Altitude 1200
Route TC
Aircraft DA42/L-SBDGRY/S

Departure

Time 2026-04-24 14:50
Airport Pori Airport (EFPO)

Arrival

Time N/A
Airport Pori Airport (EFPO)
Time Latitude Longitude Altitude Speed Heading
2026-04-24 14:36 61.46012 21.78607 42 ft 0 kts 309°
2026-04-24 14:44 61.46016 21.78599 42 ft 6 kts 320°
2026-04-24 14:45 61.46056 21.78670 42 ft 9 kts 55°
2026-04-24 14:45 61.46108 21.78683 42 ft 7 kts 337°
2026-04-24 14:45 61.46152 21.78639 42 ft 7 kts 338°
2026-04-24 14:45 61.46229 21.78579 42 ft 16 kts 345°
2026-04-24 14:46 61.46349 21.78664 43 ft 18 kts 31°
2026-04-24 14:46 61.46450 21.78792 43 ft 16 kts 26°
2026-04-24 14:46 61.46552 21.78854 43 ft 14 kts 16°
2026-04-24 14:46 61.46631 21.78831 43 ft 10 kts
2026-04-24 14:47 61.46692 21.78903 43 ft 10 kts 38°
2026-04-24 14:47 61.46717 21.79021 43 ft 10 kts 122°
2026-04-24 14:47 61.46646 21.79223 42 ft 25 kts 125°
2026-04-24 14:47 61.46550 21.79519 41 ft 24 kts 121°
2026-04-24 14:48 61.46449 21.79783 39 ft 22 kts 127°
2026-04-24 14:48 61.46363 21.80045 38 ft 21 kts 127°
2026-04-24 14:48 61.46278 21.80297 37 ft 21 kts 126°
2026-04-24 14:48 61.46194 21.80541 37 ft 20 kts 124°
2026-04-24 14:49 61.46084 21.80580 37 ft 18 kts 237°
2026-04-24 14:49 61.46073 21.80342 37 ft 15 kts 279°
2026-04-24 14:49 61.46112 21.80159 37 ft 12 kts 307°
2026-04-24 14:49 61.46231 21.79814 39 ft 59 kts 307°
2026-04-24 14:50 61.46547 21.78900 128 ft 87 kts 310°
2026-04-24 14:50 61.46910 21.77827 392 ft 98 kts 304°
2026-04-24 14:50 61.47270 21.76561 688 ft 105 kts 293°
2026-04-24 14:50 61.47087 21.75121 970 ft 120 kts 222°
2026-04-24 14:51 61.46314 21.74344 1190 ft 128 kts 210°
2026-04-24 14:51 61.45444 21.73486 1171 ft 146 kts 212°
2026-04-24 14:51 61.44510 21.72531 1227 ft 151 kts 207°
2026-04-24 14:51 61.43457 21.72461 1301 ft 159 kts 171°
2026-04-24 14:52 61.42412 21.73355 1234 ft 160 kts 141°
2026-04-24 14:52 61.41659 21.75114 1160 ft 161 kts 127°
2026-04-24 14:52 61.40998 21.76823 1096 ft 149 kts 128°
2026-04-24 14:52 61.40391 21.78480 1114 ft 137 kts 124°
2026-04-24 14:53 61.39990 21.80203 1089 ft 129 kts 87°
2026-04-24 14:53 61.40362 21.81753 1024 ft 119 kts 35°
2026-04-24 14:53 61.41030 21.82758 977 ft 118 kts 30°
2026-04-24 14:53 61.41682 21.83765 1000 ft 114 kts 30°
2026-04-24 14:54 61.42320 21.84753 951 ft 117 kts 32°
2026-04-24 14:54 61.42935 21.85612 899 ft 88 kts
2026-04-24 14:54 61.43502 21.85584 696 ft 76 kts 344°
2026-04-24 14:54 61.43968 21.85262 573 ft 69 kts 333°
2026-04-24 14:55 61.44389 21.84797 486 ft 69 kts 324°
2026-04-24 14:55 61.44750 21.84123 411 ft 69 kts 311°
2026-04-24 14:55 61.45042 21.83339 324 ft 68 kts 304°
2026-04-24 14:55 61.45307 21.82518 248 ft 67 kts 306°
2026-04-24 14:56 61.45567 21.81718 139 ft 68 kts 309°
2026-04-24 14:56 61.45840 21.80942 63 ft 66 kts 313°
2026-04-24 14:56 61.46104 21.80188 37 ft 62 kts 304°
2026-04-24 14:56 61.46392 21.79369 155 ft 75 kts 310°
2026-04-24 14:57 61.46697 21.78390 383 ft 89 kts 308°
2026-04-24 14:57 61.47065 21.77280 663 ft 100 kts 305°
2026-04-24 14:57 61.47375 21.75944 1019 ft 103 kts 277°
2026-04-24 14:57 61.47018 21.74536 1125 ft 129 kts 223°
2026-04-24 14:58 61.46269 21.73354 1107 ft 139 kts 223°
2026-04-24 14:58 61.45476 21.72119 1139 ft 144 kts 222°
2026-04-24 14:58 61.44677 21.70924 1293 ft 139 kts 221°
2026-04-24 14:58 61.43787 21.70227 1381 ft 138 kts 191°
2026-04-24 14:59 61.42919 21.70651 1320 ft 128 kts 140°
2026-04-24 14:59 61.42292 21.71976 1224 ft 130 kts 135°
2026-04-24 14:59 61.41657 21.73321 1118 ft 132 kts 132°
2026-04-24 14:59 61.41020 21.74727 1057 ft 128 kts 131°
2026-04-24 15:00 61.40449 21.76087 1062 ft 123 kts 130°
2026-04-24 15:00 61.39883 21.77451 979 ft 126 kts 129°
2026-04-24 15:00 61.39327 21.78862 945 ft 125 kts 129°
2026-04-24 15:00 61.38805 21.80272 1011 ft 122 kts 128°
2026-04-24 15:01 61.38266 21.81666 1016 ft 124 kts 129°
2026-04-24 15:01 61.37700 21.82995 1045 ft 123 kts 131°
2026-04-24 15:01 61.37122 21.84317 1063 ft 123 kts 130°
2026-04-24 15:01 61.36731 21.85886 1087 ft 120 kts 96°
2026-04-24 15:02 61.36866 21.87507 1096 ft 111 kts 52°
2026-04-24 15:02 61.37384 21.88656 1086 ft 110 kts 38°
2026-04-24 15:02 61.37969 21.89651 1079 ft 109 kts 31°
2026-04-24 15:02 61.38588 21.90616 1000 ft 115 kts 31°
2026-04-24 15:03 61.39224 21.91589 1007 ft 113 kts 32°
2026-04-24 15:03 61.39881 21.92421 1004 ft 109 kts 12°
2026-04-24 15:03 61.40619 21.92496 1008 ft 103 kts 354°
2026-04-24 15:03 61.41321 21.92375 1015 ft 101 kts 350°
2026-04-24 15:04 61.41933 21.92026 1060 ft 85 kts 330°
2026-04-24 15:04 61.42353 21.91352 994 ft 73 kts 320°
2026-04-24 15:04 61.42648 21.90555 934 ft 64 kts 308°
2026-04-24 15:04 61.42881 21.89707 888 ft 71 kts 302°
2026-04-24 15:05 61.43145 21.88859 899 ft 71 kts 311°
2026-04-24 15:05 61.43431 21.87982 905 ft 71 kts 305°
2026-04-24 15:05 61.43705 21.87114 763 ft 73 kts 305°
2026-04-24 15:05 61.43999 21.86257 613 ft 73 kts 306°
2026-04-24 15:06 61.44295 21.85416 496 ft 70 kts 307°
2026-04-24 15:06 61.44599 21.84613 390 ft 68 kts 313°
2026-04-24 15:06 61.44899 21.83771 381 ft 72 kts 311°
2026-04-24 15:06 61.45180 21.82880 284 ft 71 kts 309°
2026-04-24 15:07 61.45462 21.82051 186 ft 70 kts 309°
2026-04-24 15:07 61.45742 21.81262 92 ft 66 kts 312°
2026-04-24 15:07 61.46003 21.80480 37 ft 64 kts 310°
2026-04-24 15:07 61.46296 21.79652 138 ft 75 kts 307°
2026-04-24 15:08 61.46648 21.78730 362 ft 85 kts 312°
2026-04-24 15:08 61.46995 21.77683 611 ft 90 kts 309°
2026-04-24 15:08 61.47374 21.76598 829 ft 94 kts 314°
2026-04-24 15:08 61.47798 21.75560 1076 ft 94 kts 313°
2026-04-24 15:09 61.48231 21.74510 1254 ft 101 kts 314°
2026-04-24 15:09 61.48719 21.73405 1328 ft 105 kts 316°
2026-04-24 15:09 61.49239 21.72309 1340 ft 110 kts 314°
2026-04-24 15:09 61.49635 21.70943 1337 ft 114 kts 283°
2026-04-24 15:10 61.49385 21.69331 1275 ft 129 kts 235°
2026-04-24 15:10 61.48650 21.68190 1187 ft 137 kts 221°
2026-04-24 15:10 61.47883 21.67044 1172 ft 133 kts 222°
2026-04-24 15:10 61.47150 21.65932 1222 ft 128 kts 223°
2026-04-24 15:11 61.46427 21.64823 1198 ft 130 kts 221°
2026-04-24 15:11 61.45596 21.64047 1174 ft 136 kts 197°
2026-04-24 15:11 61.44639 21.64043 1164 ft 140 kts 172°
2026-04-24 15:11 61.43718 21.64696 1160 ft 140 kts 156°
2026-04-24 15:12 61.43002 21.66063 1175 ft 138 kts 129°
2026-04-24 15:12 61.41782 21.69161 1187 ft 139 kts 128°
2026-04-24 15:12 61.41132 21.70705 1163 ft 141 kts 133°
2026-04-24 15:13 61.40460 21.72218 1134 ft 142 kts 134°
2026-04-24 15:13 61.39770 21.73682 1108 ft 142 kts 133°
2026-04-24 15:13 61.39084 21.75193 1106 ft 140 kts 131°
2026-04-24 15:13 61.38443 21.76739 1098 ft 141 kts 131°
2026-04-24 15:14 61.37793 21.78253 1118 ft 140 kts 129°
2026-04-24 15:14 61.37152 21.79785 1107 ft 140 kts 129°
2026-04-24 15:14 61.36515 21.81328 1082 ft 141 kts 132°
2026-04-24 15:14 61.35857 21.82851 1072 ft 140 kts 128°
2026-04-24 15:15 61.35481 21.84649 1100 ft 133 kts 94°
2026-04-24 15:15 61.35619 21.86435 1182 ft 121 kts 56°
2026-04-24 15:15 61.36222 21.87686 1110 ft 124 kts 33°
2026-04-24 15:15 61.36913 21.88770 1089 ft 122 kts 32°
2026-04-24 15:16 61.37595 21.89893 1071 ft 123 kts 34°
2026-04-24 15:16 61.38273 21.90931 1075 ft 121 kts 29°
2026-04-24 15:16 61.38974 21.91956 1051 ft 122 kts 30°
2026-04-24 15:16 61.39707 21.92632 1110 ft 113 kts
2026-04-24 15:17 61.40480 21.92442 1097 ft 113 kts 342°
2026-04-24 15:17 61.41264 21.92099 1068 ft 112 kts 349°
2026-04-24 15:17 61.41904 21.91751 1100 ft 87 kts 330°
2026-04-24 15:17 61.42361 21.91043 1055 ft 82 kts 316°
2026-04-24 15:18 61.42700 21.90068 963 ft 83 kts 305°
2026-04-24 15:18 61.43034 21.89093 900 ft 82 kts 311°
2026-04-24 15:18 61.43390 21.88151 833 ft 81 kts 306°
2026-04-24 15:18 61.43726 21.87168 750 ft 82 kts 303°
2026-04-24 15:19 61.44050 21.86201 694 ft 81 kts 307°
2026-04-24 15:19 61.44371 21.85215 603 ft 84 kts 304°
2026-04-24 15:19 61.44700 21.84183 500 ft 81 kts 309°
2026-04-24 15:19 61.45032 21.83288 334 ft 77 kts 306°
2026-04-24 15:20 61.45341 21.82353 209 ft 77 kts 307°
2026-04-24 15:20 61.45661 21.81471 108 ft 78 kts 305°
2026-04-24 15:20 61.45975 21.80541 40 ft 74 kts 307°
2026-04-24 15:20 61.46272 21.79698 98 ft 75 kts 306°
2026-04-24 15:21 61.46614 21.78720 312 ft 86 kts 306°
2026-04-24 15:21 61.46960 21.77747 643 ft 84 kts 313°
2026-04-24 15:21 61.47367 21.76759 818 ft 94 kts 315°
2026-04-24 15:21 61.47839 21.75603 1000 ft 108 kts 313°
2026-04-24 15:22 61.48347 21.74300 1101 ft 122 kts 310°
2026-04-24 15:22 61.48917 21.72878 1161 ft 133 kts 313°
2026-04-24 15:22 61.49344 21.71209 1239 ft 136 kts 278°
2026-04-24 15:23 61.48209 21.67903 1031 ft 146 kts 222°
2026-04-24 15:23 61.46509 21.65531 966 ft 144 kts 217°
2026-04-24 15:23 61.45574 21.65048 1023 ft 141 kts 176°
2026-04-24 15:24 61.43407 21.68992 1056 ft 145 kts 121°
2026-04-24 15:25 61.42249 21.72454 1102 ft 146 kts 124°
2026-04-24 15:25 61.40935 21.75698 1164 ft 149 kts 132°
2026-04-24 15:26 61.38601 21.80393 1187 ft 155 kts 141°
2026-04-24 15:27 61.36350 21.85343 1087 ft 160 kts 108°
2026-04-24 15:27 61.36827 21.90968 1070 ft 119 kts 44°
2026-04-24 15:28 61.38979 21.95990 1056 ft 116 kts 28°
2026-04-24 15:29 61.40352 21.96400 1113 ft 105 kts 323°
2026-04-24 15:30 61.41748 21.93116 1232 ft 87 kts 308°
2026-04-24 15:31 61.43051 21.89002 880 ft 78 kts 306°
2026-04-24 15:32 61.44336 21.85321 377 ft 77 kts 305°
2026-04-24 15:33 61.45487 21.81961 146 ft 70 kts 304°
2026-04-24 15:33 61.46342 21.79501 91 ft 73 kts 313°
2026-04-24 15:34 61.46937 21.77629 710 ft 79 kts 309°
2026-04-24 15:35 61.48177 21.74303 1182 ft 114 kts 310°
2026-04-24 15:35 61.49065 21.71447 1307 ft 122 kts 276°
2026-04-24 15:35 61.48606 21.69843 1248 ft 142 kts 222°
2026-04-24 15:36 61.47785 21.68583 1132 ft 145 kts 223°
2026-04-24 15:36 61.46234 21.66021 941 ft 136 kts 225°
2026-04-24 15:36 61.45397 21.65246 903 ft 139 kts 182°
2026-04-24 15:37 61.44496 21.65868 899 ft 137 kts 147°
2026-04-24 15:37 61.43795 21.67131 927 ft 130 kts 130°
2026-04-24 15:37 61.43203 21.68611 859 ft 134 kts 130°
2026-04-24 15:37 61.42402 21.70470 909 ft 129 kts 134°
2026-04-24 15:38 61.41982 21.71399 902 ft 128 kts 131°
2026-04-24 15:38 61.41362 21.72669 986 ft 121 kts 136°
2026-04-24 15:38 61.40770 21.73894 1018 ft 121 kts 137°
2026-04-24 15:38 61.40154 21.75148 1019 ft 123 kts 134°
2026-04-24 15:39 61.39501 21.76384 1102 ft 126 kts 137°
2026-04-24 15:39 61.38820 21.77605 1160 ft 135 kts 139°
2026-04-24 15:39 61.38083 21.78936 1153 ft 145 kts 140°
2026-04-24 15:39 61.37292 21.80318 1186 ft 147 kts 139°
2026-04-24 15:40 61.36621 21.81906 1211 ft 144 kts 104°
2026-04-24 15:40 61.36779 21.83801 1262 ft 133 kts 51°
2026-04-24 15:40 61.37424 21.85143 1172 ft 125 kts 37°
2026-04-24 15:40 61.38041 21.86321 1128 ft 119 kts 37°
2026-04-24 15:41 61.38636 21.87480 1109 ft 110 kts 37°
2026-04-24 15:41 61.39186 21.88608 1038 ft 110 kts 39°
2026-04-24 15:41 61.39717 21.89674 1060 ft 103 kts 37°
2026-04-24 15:41 61.40257 21.90726 983 ft 106 kts 35°
2026-04-24 15:42 61.40871 21.91385 984 ft 95 kts
2026-04-24 15:42 61.41529 21.91429 944 ft 94 kts 352°
2026-04-24 15:42 61.42167 21.91117 973 ft 93 kts 331°
2026-04-24 15:42 61.42630 21.90230 1049 ft 84 kts 308°
2026-04-24 15:43 61.42974 21.89305 1011 ft 79 kts 310°
2026-04-24 15:43 61.43296 21.88359 918 ft 78 kts 310°
2026-04-24 15:43 61.43579 21.87483 837 ft 72 kts 310°
2026-04-24 15:43 61.43875 21.86643 708 ft 72 kts 309°
2026-04-24 15:44 61.44167 21.85817 618 ft 71 kts 307°
2026-04-24 15:44 61.44452 21.84970 501 ft 70 kts 310°
2026-04-24 15:44 61.44740 21.84150 408 ft 70 kts 307°
2026-04-24 15:44 61.45021 21.83332 298 ft 69 kts 310°
2026-04-24 15:45 61.45316 21.82447 218 ft 75 kts 312°
2026-04-24 15:45 61.45609 21.81616 120 ft 68 kts 309°
2026-04-24 15:45 61.45878 21.80830 51 ft 66 kts 308°
2026-04-24 15:45 61.46151 21.80059 72 ft 70 kts 310°
2026-04-24 15:46 61.46459 21.79167 297 ft 80 kts 307°
2026-04-24 15:46 61.46761 21.78162 527 ft 84 kts 308°
2026-04-24 15:46 61.47091 21.77108 706 ft 90 kts 307°
2026-04-24 15:46 61.47467 21.76080 924 ft 90 kts 310°
2026-04-24 15:47 61.47870 21.75021 1096 ft 93 kts 308°
2026-04-24 15:47 61.48294 21.73949 1173 ft 104 kts 315°
2026-04-24 15:47 61.48423 21.73660 1154 ft 108 kts 320°